createdAt,value
2016-08-25T00:00:09.748Z,967.28
2016-08-25T00:01:09.753Z,967.24
2016-08-25T00:02:09.768Z,967.26
2016-08-25T00:03:09.782Z,967.27
2016-08-25T00:04:09.797Z,967.24
2016-08-25T00:05:09.804Z,967.25
2016-08-25T00:06:09.803Z,967.25
2016-08-25T00:07:09.820Z,967.23
2016-08-25T00:08:09.826Z,967.25
2016-08-25T00:09:09.839Z,967.22
2016-08-25T00:10:09.849Z,967.21
2016-08-25T00:11:09.860Z,967.18
2016-08-25T00:12:09.869Z,967.18
2016-08-25T00:13:09.875Z,967.23
2016-08-25T00:14:09.880Z,967.21
2016-08-25T00:15:09.899Z,967.18
2016-08-25T00:16:09.899Z,967.17
2016-08-25T00:17:09.910Z,967.16
2016-08-25T00:18:09.926Z,967.13
2016-08-25T00:19:09.938Z,967.14
2016-08-25T00:20:09.946Z,967.17
2016-08-25T00:21:09.950Z,967.17
2016-08-25T00:22:09.962Z,967.15
2016-08-25T00:23:09.969Z,967.13
2016-08-25T00:24:09.985Z,967.16
2016-08-25T00:25:09.991Z,967.17
2016-08-25T00:26:10.005Z,967.18
2016-08-25T00:27:10.011Z,967.19
2016-08-25T00:28:10.024Z,967.2
2016-08-25T00:29:10.028Z,967.17
2016-08-25T00:30:10.039Z,967.2
2016-08-25T00:31:10.053Z,967.19
2016-08-25T00:32:10.067Z,967.24
2016-08-25T00:33:10.069Z,967.23
2016-08-25T00:34:10.080Z,967.19
2016-08-25T00:35:10.093Z,967.23
2016-08-25T00:36:10.099Z,967.21
2016-08-25T00:37:10.123Z,967.17
2016-08-25T00:38:10.124Z,967.19
2016-08-25T00:39:10.136Z,967.19
2016-08-25T00:40:10.145Z,967.2
2016-08-25T00:41:10.153Z,967.17
2016-08-25T00:42:10.181Z,967.17
2016-08-25T00:43:10.166Z,967.15
2016-08-25T00:44:10.175Z,967.13
2016-08-25T00:45:10.187Z,967.15
2016-08-25T00:46:10.194Z,967.16
2016-08-25T00:47:10.207Z,967.14
2016-08-25T00:48:10.224Z,967.14
2016-08-25T00:49:10.227Z,967.11
2016-08-25T00:50:10.244Z,967.07
2016-08-25T00:51:10.254Z,967.11
2016-08-25T00:52:10.256Z,967.12
2016-08-25T00:53:10.272Z,967.11
2016-08-25T00:54:10.286Z,967.09
2016-08-25T00:55:10.284Z,967.1
2016-08-25T00:56:10.295Z,967.08
2016-08-25T00:57:10.309Z,967.1
2016-08-25T00:58:10.314Z,967.05
2016-08-25T00:59:10.322Z,967.05
2016-08-25T01:00:10.342Z,967.07
2016-08-25T01:01:10.350Z,967.05
2016-08-25T01:02:10.355Z,967.06
2016-08-25T01:03:10.365Z,967.04
2016-08-25T01:04:10.374Z,967.07
2016-08-25T01:05:10.383Z,967.06
2016-08-25T01:06:10.401Z,967.07
2016-08-25T01:07:10.403Z,967.09
2016-08-25T01:08:10.415Z,967.1
2016-08-25T01:09:10.424Z,967.09
2016-08-25T01:10:10.433Z,967.11
2016-08-25T01:11:10.440Z,967.1
2016-08-25T01:12:10.461Z,967.08
2016-08-25T01:13:10.470Z,967.1
2016-08-25T01:14:10.473Z,967.07
2016-08-25T01:15:10.490Z,967.08
2016-08-25T01:16:10.493Z,967.06
2016-08-25T01:17:10.501Z,967.08
2016-08-25T01:18:10.513Z,966.97
2016-08-25T01:19:10.523Z,967.06
2016-08-25T01:20:10.540Z,967.04
2016-08-25T01:21:10.549Z,967
2016-08-25T01:22:10.560Z,966.99
2016-08-25T01:23:10.561Z,966.98
2016-08-25T01:24:10.579Z,966.98
2016-08-25T01:25:10.589Z,966.96
2016-08-25T01:26:10.596Z,966.99
2016-08-25T01:27:10.608Z,966.95
2016-08-25T01:28:10.617Z,966.96
2016-08-25T01:29:10.627Z,966.93
2016-08-25T01:30:10.638Z,966.95
2016-08-25T01:31:10.643Z,966.95
2016-08-25T01:32:10.651Z,966.95
2016-08-25T01:33:10.667Z,966.97
2016-08-25T01:34:10.682Z,966.95
2016-08-25T01:35:10.684Z,966.98
2016-08-25T01:36:10.690Z,966.95
2016-08-25T01:37:10.701Z,966.98
2016-08-25T01:38:10.717Z,966.98
2016-08-25T01:39:10.715Z,966.98
2016-08-25T01:40:10.726Z,966.99
2016-08-25T01:41:10.745Z,967
2016-08-25T01:42:10.755Z,967
2016-08-25T01:43:10.756Z,967
2016-08-25T01:44:10.769Z,967
2016-08-25T01:45:10.787Z,967
2016-08-25T01:46:10.787Z,966.96
2016-08-25T01:47:10.802Z,966.98
2016-08-25T01:48:10.814Z,966.99
2016-08-25T01:49:10.815Z,967.02
2016-08-25T01:50:10.826Z,966.98
2016-08-25T01:51:10.837Z,966.98
2016-08-25T01:52:10.851Z,967
2016-08-25T01:53:10.857Z,967.01
2016-08-25T01:54:10.864Z,966.98
2016-08-25T01:55:10.875Z,966.99
2016-08-25T01:56:10.892Z,966.95
2016-08-25T01:57:10.904Z,966.95
2016-08-25T01:58:10.909Z,966.94
2016-08-25T01:59:10.913Z,966.98
2016-08-25T02:00:10.923Z,966.95
2016-08-25T02:01:10.938Z,966.9
2016-08-25T02:02:10.944Z,966.89
2016-08-25T02:03:10.951Z,966.91
2016-08-25T02:04:10.963Z,966.92
2016-08-25T02:05:10.977Z,966.93
2016-08-25T02:06:10.981Z,966.94
2016-08-25T02:07:10.999Z,966.95
2016-08-25T02:08:11.000Z,966.95
2016-08-25T02:09:11.010Z,966.89
2016-08-25T02:10:11.026Z,966.93
2016-08-25T02:11:11.029Z,966.94
2016-08-25T02:12:11.048Z,966.92
2016-08-25T02:13:11.060Z,966.89
2016-08-25T02:14:11.068Z,966.89
2016-08-25T02:15:11.071Z,966.89
2016-08-25T02:16:11.087Z,966.87
2016-08-25T02:17:11.097Z,966.86
2016-08-25T02:18:11.106Z,966.87
2016-08-25T02:19:11.116Z,966.9
2016-08-25T02:20:11.125Z,966.89
2016-08-25T02:21:11.129Z,966.9
2016-08-25T02:22:11.138Z,966.91
2016-08-25T02:23:11.157Z,966.9
2016-08-25T02:24:11.155Z,966.9
2016-08-25T02:25:11.176Z,966.93
2016-08-25T02:26:11.183Z,966.95
2016-08-25T02:27:11.189Z,966.97
2016-08-25T02:28:11.198Z,966.94
2016-08-25T02:29:11.205Z,966.94
2016-08-25T02:30:11.221Z,966.91
2016-08-25T02:31:11.226Z,966.95
2016-08-25T02:32:11.235Z,966.93
2016-08-25T02:33:11.252Z,966.87
2016-08-25T02:34:11.261Z,966.89
2016-08-25T02:35:11.263Z,966.89
2016-08-25T02:36:11.280Z,966.89
2016-08-25T02:37:11.292Z,966.92
2016-08-25T02:38:11.300Z,966.89
2016-08-25T02:39:11.311Z,966.88
2016-08-25T02:40:11.320Z,966.84
2016-08-25T02:41:11.327Z,966.88
2016-08-25T02:42:11.335Z,966.85
2016-08-25T02:43:11.342Z,966.85
2016-08-25T02:44:11.353Z,966.83
2016-08-25T02:45:11.368Z,966.82
2016-08-25T02:46:11.380Z,966.78
2016-08-25T02:47:11.389Z,966.77
2016-08-25T02:48:11.391Z,966.78
2016-08-25T02:49:11.406Z,966.73
2016-08-25T02:50:11.412Z,966.75
2016-08-25T02:51:11.420Z,966.69
2016-08-25T02:52:11.432Z,966.7
2016-08-25T02:53:11.445Z,966.69
2016-08-25T02:54:11.451Z,966.72
2016-08-25T02:55:11.459Z,966.66
2016-08-25T02:56:11.475Z,966.64
2016-08-25T02:57:11.485Z,966.68
2016-08-25T02:58:11.497Z,966.64
2016-08-25T02:59:11.505Z,966.64
2016-08-25T03:00:11.526Z,966.69
2016-08-25T03:01:11.526Z,966.65
2016-08-25T03:02:11.533Z,966.68
2016-08-25T03:03:11.537Z,966.69
2016-08-25T03:04:11.554Z,966.65
2016-08-25T03:05:11.563Z,966.65
2016-08-25T03:06:11.573Z,966.68
2016-08-25T03:07:11.573Z,966.63
2016-08-25T03:08:11.584Z,966.64
2016-08-25T03:09:11.602Z,966.61
2016-08-25T03:10:11.607Z,966.65
2016-08-25T03:11:11.612Z,966.63
2016-08-25T03:12:11.628Z,966.61
2016-08-25T03:13:11.641Z,966.6
2016-08-25T03:14:11.654Z,966.6
2016-08-25T03:15:11.661Z,966.58
2016-08-25T03:16:11.662Z,966.53
2016-08-25T03:17:11.670Z,966.54
2016-08-25T03:18:11.680Z,966.53
2016-08-25T03:19:11.697Z,966.53
2016-08-25T03:20:11.702Z,966.48
2016-08-25T03:21:11.719Z,966.49
2016-08-25T03:22:11.726Z,966.47
2016-08-25T03:23:11.732Z,966.49
2016-08-25T03:24:11.740Z,966.49
2016-08-25T03:25:11.751Z,966.46
2016-08-25T03:26:11.767Z,966.49
2016-08-25T03:27:11.776Z,966.47
2016-08-25T03:28:11.789Z,966.43
2016-08-25T03:29:11.785Z,966.42
2016-08-25T03:30:11.805Z,966.37
2016-08-25T03:31:11.806Z,966.35
2016-08-25T03:32:11.822Z,966.37
2016-08-25T03:33:11.823Z,966.34
2016-08-25T03:34:11.843Z,966.33
2016-08-25T03:35:11.844Z,966.37
2016-08-25T03:36:11.854Z,966.33
2016-08-25T03:37:11.873Z,966.33
2016-08-25T03:38:11.874Z,966.34
2016-08-25T03:39:11.882Z,966.35
2016-08-25T03:40:11.901Z,966.35
2016-08-25T03:41:11.909Z,966.33
2016-08-25T03:42:11.913Z,966.34
2016-08-25T03:43:11.928Z,966.37
2016-08-25T03:44:11.930Z,966.36
2016-08-25T03:45:11.941Z,966.34
2016-08-25T03:46:11.951Z,966.37
2016-08-25T03:47:11.961Z,966.4
2016-08-25T03:48:11.976Z,966.39
2016-08-25T03:49:11.989Z,966.41
2016-08-25T03:50:11.988Z,966.4
2016-08-25T03:51:11.996Z,966.4
2016-08-25T03:52:12.014Z,966.35
2016-08-25T03:53:12.018Z,966.41
2016-08-25T03:54:12.027Z,966.39
2016-08-25T03:55:12.037Z,966.41
2016-08-25T03:56:12.056Z,966.41
2016-08-25T03:57:12.056Z,966.42
2016-08-25T03:58:12.074Z,966.39
2016-08-25T03:59:12.076Z,966.43
2016-08-25T04:00:12.093Z,966.36
2016-08-25T04:01:12.102Z,966.42
2016-08-25T04:02:12.104Z,966.42
2016-08-25T04:03:12.115Z,966.39
2016-08-25T04:04:12.132Z,966.4
2016-08-25T04:05:12.133Z,966.41
2016-08-25T04:06:12.142Z,966.42
2016-08-25T04:07:12.156Z,966.44
2016-08-25T04:08:12.164Z,966.44
2016-08-25T04:09:12.173Z,966.41
2016-08-25T04:10:12.190Z,966.45
2016-08-25T04:11:12.195Z,966.46
2016-08-25T04:12:12.204Z,966.46
2016-08-25T04:13:12.212Z,966.49
2016-08-25T04:14:12.228Z,966.45
2016-08-25T04:15:12.236Z,966.43
2016-08-25T04:16:12.247Z,966.47
2016-08-25T04:17:12.250Z,966.49
2016-08-25T04:18:12.257Z,966.43
2016-08-25T04:19:12.277Z,966.44
2016-08-25T04:20:12.286Z,966.49
2016-08-25T04:21:12.294Z,966.51
2016-08-25T04:22:12.305Z,966.49
2016-08-25T04:23:12.314Z,966.47
2016-08-25T04:24:12.318Z,966.52
2016-08-25T04:25:12.334Z,966.51
2016-08-25T04:26:12.335Z,966.54
2016-08-25T04:27:12.345Z,966.52
2016-08-25T04:28:12.354Z,966.54
2016-08-25T14:49:40.387Z,965.12
2016-08-25T14:50:40.400Z,965.07
2016-08-25T14:51:40.407Z,965.04
2016-08-25T14:52:40.423Z,965.08
2016-08-25T14:53:40.430Z,965.07
2016-08-25T14:54:40.452Z,965.05
2016-08-25T14:55:40.460Z,965.05
2016-08-25T14:56:40.467Z,965.06
